Time;durP1;ratioP1;P1;durP2;ratioP2;P2;SDS_P1;SDS_P2;PMS_P1;PMS_P2;Temp;Humidity;BMP_temperature;BMP_pressure;BME280_temperature;BME280_humidity;BME280_pressure;Samples;Min_cycle;Max_cycle;Signal;HPM_P1;HPM_P2
2022/09/24 00:02:48;;;;;;;9.52;5.53;;;23.10;36.30;;;;;;20814118;28;20092;-56
2022/09/24 00:12:51;;;;;;;6.40;4.72;;;23.10;36.00;;;;;;20831699;28;20045;-57
2022/09/24 00:22:53;;;;;;;9.13;5.35;;;23.10;35.80;;;;;;20829947;28;20096;-57
2022/09/24 00:32:54;;;;;;;7.88;5.30;;;23.00;36.10;;;;;;20812177;28;20076;-56
2022/09/24 00:42:56;;;;;;;6.03;5.10;;;22.90;37.40;;;;;;20828766;28;20049;-57
2022/09/24 00:52:59;;;;;;;9.57;5.07;;;22.70;37.30;;;;;;20829701;28;20050;-56
2022/09/24 01:03:11;;;;;;;7.32;4.40;;;22.70;37.00;;;;;;20828681;28;20049;-56
2022/09/24 01:13:34;;;;;;;7.13;5.00;;;22.60;37.30;;;;;;20828323;28;20386;-56
2022/09/24 01:23:43;;;;;;;5.88;4.30;;;22.50;37.70;;;;;;20810412;28;20053;-55
2022/09/24 01:33:52;;;;;;;5.93;4.53;;;22.40;37.70;;;;;;20827714;28;20057;-56
2022/09/24 01:43:57;;;;;;;7.97;4.82;;;22.30;37.90;;;;;;20827416;28;20095;-57
2022/09/24 01:54:27;;;;;;;9.90;4.47;;;22.20;37.80;;;;;;20835656;28;20084;-58
2022/09/24 02:04:48;;;;;;;5.65;4.70;;;22.30;37.40;;;;;;20840981;28;20107;-57
2022/09/24 02:14:57;;;;;;;6.20;5.47;;;22.10;37.80;;;;;;20841281;28;20413;-57
2022/09/24 02:25:03;;;;;;;6.03;5.10;;;22.00;38.00;;;;;;20839578;28;20049;-58
2022/09/24 02:35:10;;;;;;;9.75;5.03;;;21.80;38.40;;;;;;20838299;28;20048;-55
2022/09/24 02:45:11;;;;;;;11.00;5.40;;;21.70;38.60;;;;;;20838400;28;20099;-58
2022/09/24 02:55:16;;;;;;;6.78;5.38;;;21.50;38.80;;;;;;20837930;28;20045;-57
2022/09/24 03:05:17;;;;;;;5.15;4.53;;;21.40;39.00;;;;;;20836929;28;20049;-55
2022/09/24 03:15:18;;;;;;;5.82;4.57;;;21.40;39.10;;;;;;20836532;28;20055;-57
2022/09/24 03:25:20;;;;;;;6.78;4.90;;;21.40;39.20;;;;;;20834751;28;20478;-54
2022/09/24 03:35:21;;;;;;;5.65;4.80;;;21.30;39.50;;;;;;20834220;28;20601;-54
2022/09/24 03:45:23;;;;;;;7.00;5.28;;;21.40;40.10;;;;;;20834209;28;20053;-54
2022/09/24 03:55:24;;;;;;;6.78;5.40;;;21.20;40.60;;;;;;20815968;28;20057;-55
2022/09/24 04:05:26;;;;;;;8.10;5.68;;;21.10;40.80;;;;;;20813785;28;20099;-56
2022/09/24 04:15:27;;;;;;;6.25;4.65;;;20.90;41.90;;;;;;20830126;28;20045;-55
2022/09/24 04:25:31;;;;;;;6.60;5.10;;;20.90;41.20;;;;;;20830259;28;20053;-57
2022/09/24 04:35:37;;;;;;;6.10;4.80;;;20.90;40.90;;;;;;20829935;28;20410;-59
2022/09/24 04:45:42;;;;;;;7.80;5.45;;;20.80;41.10;;;;;;20829884;28;20137;-55
2022/09/24 04:55:43;;;;;;;10.00;5.50;;;20.70;41.40;;;;;;20829059;28;20409;-54
2022/09/24 05:05:44;;;;;;;10.45;5.85;;;20.70;41.60;;;;;;20828951;28;20414;-54
2022/09/24 05:15:46;;;;;;;7.38;5.20;;;20.70;41.80;;;;;;20829526;28;20515;-54
2022/09/24 05:36:07;;;;;;;5.90;4.80;;;20.60;41.30;;;;;;20843178;28;20124;-54
2022/09/24 05:46:09;;;;;;;5.90;4.70;;;20.50;42.40;;;;;;20842652;28;20045;-54
2022/09/24 05:56:10;;;;;;;7.03;5.22;;;20.30;42.60;;;;;;20841559;28;20050;-56
2022/09/24 06:06:12;;;;;;;6.80;4.97;;;20.20;42.90;;;;;;20841646;28;20492;-54
2022/09/24 06:16:14;;;;;;;6.60;5.18;;;20.10;43.50;;;;;;20841557;28;20468;-55
2022/09/24 06:26:17;;;;;;;7.10;5.60;;;20.00;44.50;;;;;;20839491;28;20057;-55
2022/09/24 06:36:19;;;;;;;8.33;5.80;;;19.90;45.20;;;;;;20838735;28;20053;-57
2022/09/24 06:46:24;;;;;;;10.63;5.60;;;20.00;44.80;;;;;;20838872;28;20138;-56
2022/09/24 06:56:26;;;;;;;8.57;5.38;;;20.00;45.00;;;;;;20838299;28;20048;-56
2022/09/24 07:07:28;;;;;;;9.55;5.80;;;19.80;47.40;;;;;;20836218;28;20547;-58
2022/09/24 07:16:52;;;;;;;9.35;5.65;;;19.60;47.30;;;;;;20835755;28;20048;-55
2022/09/24 07:26:55;;;;;;;8.23;5.57;;;19.50;46.80;;;;;;20834735;28;20148;-56
2022/09/24 07:36:57;;;;;;;10.45;6.03;;;19.50;46.30;;;;;;20834031;28;20413;-56
2022/09/24 07:46:59;;;;;;;8.85;5.07;;;19.60;45.40;;;;;;20832307;28;20140;-56
2022/09/24 07:57:01;;;;;;;8.82;5.38;;;19.70;46.00;;;;;;20833399;28;20208;-55
2022/09/24 08:07:03;;;;;;;8.67;5.67;;;20.00;43.80;;;;;;20831829;28;20053;-55
2022/09/24 08:17:04;;;;;;;6.95;5.00;;;20.40;43.80;;;;;;20832528;28;20512;-55
2022/09/24 08:27:07;;;;;;;8.13;5.43;;;20.70;43.40;;;;;;20831650;28;20129;-55
2022/09/24 08:37:09;;;;;;;9.18;6.32;;;21.10;42.20;;;;;;20830809;28;20064;-57
2022/09/24 08:47:23;;;;;;;11.45;6.40;;;21.20;42.10;;;;;;20829894;28;20053;-58
2022/09/24 08:57:27;;;;;;;9.65;5.35;;;21.50;41.50;;;;;;20829295;28;20136;-56
2022/09/24 09:07:42;;;;;;;8.13;5.57;;;21.60;40.60;;;;;;20845803;28;20060;-56
2022/09/24 09:18:18;;;;;;;6.22;4.47;;;21.80;40.00;;;;;;20845028;28;20049;-55
2022/09/24 09:28:20;;;;;;;6.25;4.60;;;21.80;40.50;;;;;;20839644;28;20115;-57
2022/09/24 09:39:00;;;;;;;5.87;4.67;;;22.00;40.90;;;;;;20843996;28;20053;-56
2022/09/24 09:49:05;;;;;;;7.55;4.95;;;22.20;40.60;;;;;;20841913;28;20041;-55
2022/09/24 09:59:11;;;;;;;8.43;5.72;;;22.40;40.60;;;;;;20842131;28;20053;-55
2022/09/24 10:09:18;;;;;;;9.43;5.75;;;22.50;41.00;;;;;;20839988;28;20045;-55
2022/09/24 10:19:23;;;;;;;8.95;6.10;;;22.70;41.10;;;;;;20840560;28;20053;-56
2022/09/24 10:40:14;;;;;;;7.30;5.18;;;23.20;38.80;;;;;;20837779;28;20128;-56
2022/09/24 10:50:41;;;;;;;7.70;6.50;;;23.30;38.70;;;;;;20838826;28;20045;-56
2022/09/24 11:01:04;;;;;;;8.57;5.38;;;23.50;38.00;;;;;;20836582;28;20052;-55
2022/09/24 11:11:31;;;;;;;6.78;5.43;;;23.70;37.90;;;;;;20836903;28;20541;-56
2022/09/24 11:22:35;;;;;;;7.80;5.65;;;23.90;37.90;;;;;;20834948;28;20413;-57
2022/09/24 11:32:46;;;;;;;8.85;6.63;;;24.00;37.20;;;;;;20502222;28;20566;-55
2022/09/24 11:42:55;;;;;;;5.88;4.88;;;24.20;37.40;;;;;;20501121;28;20095;-55
2022/09/24 11:53:05;;;;;;;6.25;4.80;;;24.50;35.90;;;;;;20501217;28;20051;-54
2022/09/24 12:03:31;;;;;;;7.10;4.90;;;24.60;35.20;;;;;;20686623;28;20136;-55
2022/09/24 12:13:40;;;;;;;14.77;10.10;;;24.90;34.50;;;;;;20830894;28;20057;-56
2022/09/24 12:23:44;;;;;;;12.10;9.20;;;24.90;34.70;;;;;;20831638;28;20156;-57
2022/09/24 12:34:07;;;;;;;4.22;3.25;;;24.80;34.70;;;;;;20829112;28;20156;-56
2022/09/24 12:44:09;;;;;;;8.18;3.92;;;25.20;33.10;;;;;;20828912;28;20064;-55
2022/09/24 12:54:28;;;;;;;5.17;4.07;;;25.30;33.70;;;;;;20829858;28;20049;-54
2022/09/24 13:04:30;;;;;;;5.43;3.25;;;25.60;33.20;;;;;;20828904;28;20068;-56
2022/09/24 13:14:34;;;;;;;4.17;3.73;;;25.50;32.60;;;;;;20828832;28;20493;-56
2022/09/24 13:24:48;;;;;;;3.88;3.33;;;25.40;33.60;;;;;;20827361;28;20053;-56
2022/09/24 13:34:50;;;;;;;5.80;5.18;;;25.90;31.80;;;;;;20827318;28;20057;-55
2022/09/24 13:45:01;;;;;;;4.22;3.30;;;25.70;32.50;;;;;;20828138;28;20053;-57
2022/09/24 13:55:30;;;;;;;3.20;2.85;;;26.00;31.50;;;;;;20842832;28;20042;-54
2022/09/24 14:05:35;;;;;;;7.05;4.28;;;26.40;31.90;;;;;;20841000;28;20057;-56
2022/09/24 14:15:37;;;;;;;5.97;3.42;;;26.60;30.40;;;;;;20840906;28;20477;-56
2022/09/24 14:25:38;;;;;;;4.23;2.70;;;26.60;29.60;;;;;;20839781;28;20049;-56
2022/09/24 14:35:46;;;;;;;3.72;2.50;;;26.80;29.40;;;;;;20839204;28;20057;-56
2022/09/24 14:45:50;;;;;;;3.72;3.17;;;26.90;29.10;;;;;;20837764;28;20115;-56
2022/09/24 14:55:52;;;;;;;3.40;2.30;;;26.90;28.60;;;;;;20803820;28;20128;-57
2022/09/24 15:06:34;;;;;;;3.20;2.58;;;26.80;29.40;;;;;;20837837;28;20057;-55
2022/09/24 15:16:35;;;;;;;3.03;2.73;;;27.00;29.20;;;;;;20504258;29;20082;-56
2022/09/24 15:26:41;;;;;;;3.85;2.60;;;26.70;29.40;;;;;;20503142;28;20143;-55
2022/09/24 15:36:43;;;;;;;3.33;2.78;;;26.70;28.70;;;;;;20502600;29;20147;-55
2022/09/24 15:46:44;;;;;;;4.47;2.13;;;26.60;28.60;;;;;;20618545;28;20140;-56
2022/09/24 15:56:51;;;;;;;3.28;2.38;;;26.40;27.60;;;;;;20832560;28;20132;-55
2022/09/24 16:06:52;;;;;;;3.30;2.72;;;26.10;27.10;;;;;;20833150;28;20095;-56
2022/09/24 16:16:54;;;;;;;2.50;1.90;;;26.10;26.70;;;;;;20831454;28;20133;-57
2022/09/24 16:26:56;;;;;;;3.47;2.58;;;26.00;26.10;;;;;;20831655;28;20115;-56
2022/09/24 16:36:57;;;;;;;6.32;4.72;;;25.70;28.00;;;;;;20829576;28;20057;-56
2022/09/24 16:46:59;;;;;;;5.68;2.53;;;25.70;28.20;;;;;;20830757;28;20383;-57
2022/09/24 16:57:02;;;;;;;2.57;1.63;;;25.40;28.80;;;;;;20830287;28;20129;-56
2022/09/24 17:07:03;;;;;;;4.18;2.58;;;25.20;29.60;;;;;;20829053;28;20053;-56
2022/09/24 17:17:05;;;;;;;3.33;1.67;;;25.00;30.70;;;;;;20828610;28;20425;-56
2022/09/24 17:27:07;;;;;;;1.95;1.25;;;24.80;31.00;;;;;;20842060;28;20045;-57
2022/09/24 17:37:09;;;;;;;2.63;1.00;;;24.60;30.40;;;;;;20842986;28;20446;-57
2022/09/24 17:47:11;;;;;;;;;;;24.40;29.90;;;;;;20831752;28;20054;-55
2022/09/24 17:57:13;;;;;;;2.58;1.77;;;24.60;40.30;;;;;;20837487;28;19921;-56
2022/09/24 18:07:16;;;;;;;4.63;1.50;;;25.00;36.60;;;;;;20835662;28;20053;-54
2022/09/24 18:17:17;;;;;;;1.90;1.02;;;25.10;34.40;;;;;;20783746;28;20187;-55
2022/09/24 18:27:19;;;;;;;1.40;0.90;;;24.20;31.00;;;;;;20758742;28;20054;-54
2022/09/24 18:37:21;;;;;;;3.60;1.50;;;23.80;32.00;;;;;;20756384;28;20073;-55
2022/09/24 18:47:22;;;;;;;3.37;1.47;;;23.60;32.70;;;;;;20739050;28;20509;-54
2022/09/24 18:57:24;;;;;;;2.80;2.05;;;23.40;33.30;;;;;;20757297;28;20045;-56
2022/09/24 19:07:25;;;;;;;4.35;2.38;;;23.20;33.10;;;;;;20754104;28;20057;-55
2022/09/24 19:17:27;;;;;;;2.00;1.17;;;23.20;33.50;;;;;;20752937;28;20050;-56
2022/09/24 19:27:28;;;;;;;4.38;1.52;;;23.10;33.70;;;;;;20753764;28;20050;-56
2022/09/24 19:37:30;;;;;;;9.13;5.50;;;22.90;33.80;;;;;;20752372;28;20053;-56
2022/09/24 19:47:32;;;;;;;5.35;1.98;;;22.70;34.30;;;;;;20750686;28;20054;-56
2022/09/24 19:57:33;;;;;;;3.80;1.87;;;22.60;34.10;;;;;;20752399;28;20077;-55
2022/09/24 20:07:35;;;;;;;3.78;1.38;;;22.50;35.00;;;;;;20750252;28;20053;-55
2022/09/24 20:17:37;;;;;;;2.67;1.10;;;22.20;35.30;;;;;;20749753;28;20135;-54
2022/09/24 20:27:50;;;;;;;1.75;1.10;;;22.00;35.60;;;;;;20749015;28;20145;-54
2022/09/24 20:37:51;;;;;;;;;;;21.90;36.30;;;;;;20749637;28;20046;-53
2022/09/24 20:47:52;;;;;;;3.15;2.17;;;21.50;41.30;;;;;;20747656;28;19928;-55
2022/09/24 20:57:54;;;;;;;4.50;1.45;;;21.30;43.00;;;;;;20755303;28;20172;-54
2022/09/24 21:07:55;;;;;;;2.40;1.65;;;21.10;43.70;;;;;;20763935;28;20100;-54
2022/09/24 21:17:56;;;;;;;3.58;1.60;;;20.80;44.20;;;;;;20763356;28;20045;-55
2022/09/24 21:28:00;;;;;;;2.83;1.30;;;20.40;44.90;;;;;;20762061;28;20072;-54
2022/09/24 21:38:01;;;;;;;;;;;20.30;44.30;;;;;;20762036;28;20053;-56
2022/09/24 21:48:03;;;;;;;4.88;1.13;;;20.00;45.00;;;;;;20761942;28;19925;-54
2022/09/24 21:58:04;;;;;;;1.50;0.70;;;19.90;45.10;;;;;;20761337;28;20064;-56
2022/09/24 22:08:10;;;;;;;2.00;0.90;;;19.70;45.50;;;;;;20758336;28;20061;-55
2022/09/24 22:18:12;;;;;;;1.30;0.80;;;19.70;45.60;;;;;;20759625;28;20053;-55
2022/09/24 22:28:13;;;;;;;3.25;0.85;;;19.60;46.10;;;;;;20758626;28;20594;-53
2022/09/24 22:38:15;;;;;;;2.35;0.70;;;19.40;46.60;;;;;;20757132;28;20093;-54
2022/09/24 22:48:16;;;;;;;1.17;0.80;;;19.30;47.20;;;;;;20757000;28;20508;-54
2022/09/24 22:58:17;;;;;;;1.63;0.70;;;19.10;47.90;;;;;;20755303;28;20092;-53
2022/09/24 23:08:19;;;;;;;1.35;0.60;;;19.10;47.80;;;;;;20754981;28;20049;-54
2022/09/24 23:18:20;;;;;;;0.98;0.60;;;19.00;47.60;;;;;;20754341;28;20050;-53
2022/09/24 23:28:21;;;;;;;1.63;0.70;;;18.90;47.40;;;;;;20753815;28;20085;-53
2022/09/24 23:38:23;;;;;;;1.33;0.68;;;18.70;47.60;;;;;;20753353;28;20057;-52
2022/09/24 23:48:25;;;;;;;1.70;0.70;;;18.70;47.50;;;;;;20752911;28;20052;-54
2022/09/24 23:58:26;;;;;;;1.77;0.70;;;18.50;47.70;;;;;;20750855;28;20081;-54
